Time;durP1;ratioP1;P1;durP2;ratioP2;P2;SDS_P1;SDS_P2;PMS_P1;PMS_P2;Temp;Humidity;BMP_temperature;BMP_pressure;BME280_temperature;BME280_humidity;BME280_pressure;Samples;Min_cycle;Max_cycle;Signal;HPM_P1;HPM_P2
2024/04/13 00:02:09;;;;;;;3.42;0.77;;;;;;;10.76;100.00;101858.44;5258316;27;20018;-77
2024/04/13 00:04:36;;;;;;;1.45;0.60;;;;;;;10.71;100.00;101852.97;5281223;27;20451;-77
2024/04/13 00:07:07;;;;;;;3.47;1.42;;;;;;;10.66;100.00;101865.66;5270186;27;20002;-77
2024/04/13 00:09:34;;;;;;;2.10;0.85;;;;;;;10.63;100.00;101852.81;5267254;27;20081;-77
2024/04/13 00:12:09;;;;;;;1.95;0.80;;;;;;;10.56;100.00;101853.44;5287019;27;20006;-76
2024/04/13 00:14:37;;;;;;;1.00;0.63;;;;;;;10.52;100.00;101847.41;5254490;27;20003;-77
2024/04/13 00:17:08;;;;;;;2.38;0.93;;;;;;;10.57;100.00;101859.72;5292342;27;20032;-77
2024/04/13 00:19:36;;;;;;;9.65;1.05;;;;;;;10.56;100.00;101845.09;5303795;26;20016;-77
2024/04/13 00:22:06;;;;;;;1.88;0.73;;;;;;;10.54;100.00;101847.66;5303356;26;20037;-76
2024/04/13 00:24:34;;;;;;;2.58;0.90;;;;;;;10.51;100.00;101843.16;5308090;26;20344;-77
2024/04/13 00:27:07;;;;;;;1.70;0.77;;;;;;;10.48;100.00;101841.41;5302703;26;20535;-76
2024/04/13 00:29:35;;;;;;;1.77;0.68;;;;;;;10.44;100.00;101844.50;5302865;27;20494;-75
2024/04/13 00:32:05;;;;;;;1.75;0.68;;;;;;;10.47;100.00;101842.69;5303407;26;20016;-76
2024/04/13 00:34:36;;;;;;;2.75;0.77;;;;;;;10.44;100.00;101852.81;5299279;26;20021;-75
2024/04/13 00:37:03;;;;;;;1.58;0.82;;;;;;;10.43;100.00;101845.00;5329963;26;20492;-75
2024/04/13 00:39:34;;;;;;;3.13;0.57;;;;;;;10.40;100.00;101846.81;5304709;26;20031;-74
2024/04/13 00:42:06;;;;;;;1.50;0.70;;;;;;;10.39;100.00;101844.56;5301399;27;20088;-75
2024/04/13 00:44:42;;;;;;;3.40;1.25;;;;;;;10.38;100.00;101843.06;5303476;27;20002;-75
2024/04/13 00:47:09;;;;;;;1.40;0.63;;;;;;;10.36;100.00;101851.94;5327601;26;20021;-75
2024/04/13 00:49:41;;;;;;;2.03;0.95;;;;;;;10.35;100.00;101847.63;5303130;26;20770;-75
2024/04/13 00:52:12;;;;;;;1.65;0.57;;;;;;;10.31;100.00;101850.72;5303360;26;20004;-75
2024/04/13 00:54:45;;;;;;;2.92;0.73;;;;;;;10.28;100.00;101857.28;5301625;27;20009;-75
2024/04/13 00:57:16;;;;;;;1.27;0.68;;;;;;;10.26;100.00;101853.50;5301238;27;20397;-75
2024/04/13 00:59:47;;;;;;;2.20;1.08;;;;;;;10.25;100.00;101857.56;5304161;27;20092;-76
2024/04/13 01:02:18;;;;;;;2.08;0.82;;;;;;;10.23;100.00;101849.00;5295249;27;20021;-75
2024/04/13 01:04:50;;;;;;;2.97;1.02;;;;;;;10.18;100.00;101853.34;5303095;27;20006;-75
2024/04/13 01:07:18;;;;;;;1.98;0.90;;;;;;;10.16;100.00;101839.25;5303786;26;20083;-75
2024/04/13 01:09:49;;;;;;;1.83;0.90;;;;;;;10.14;100.00;101836.28;5303080;27;20471;-75
2024/04/13 01:12:19;;;;;;;1.10;0.70;;;;;;;10.10;100.00;101830.25;5301889;26;20010;-75
2024/04/13 01:14:49;;;;;;;3.17;0.55;;;;;;;10.05;100.00;101836.63;5301479;27;20726;-75
2024/04/13 01:17:18;;;;;;;1.63;0.70;;;;;;;10.03;100.00;101847.50;5302763;26;20091;-75
2024/04/13 01:19:48;;;;;;;1.55;0.98;;;;;;;10.01;100.00;101845.22;5302488;27;20413;-75
2024/04/13 01:22:16;;;;;;;2.50;1.08;;;;;;;9.98;100.00;101849.06;5300232;26;20006;-75
2024/04/13 01:24:50;;;;;;;1.63;0.85;;;;;;;9.97;100.00;101855.13;5301096;27;20013;-75
2024/04/13 01:27:21;;;;;;;3.75;0.82;;;;;;;9.92;100.00;101850.41;5347190;26;20021;-75
2024/04/13 01:29:52;;;;;;;2.28;0.65;;;;;;;9.82;100.00;101853.50;5300584;27;20016;-75
2024/04/13 01:32:19;;;;;;;2.28;0.90;;;;;;;9.82;100.00;101847.22;5300435;27;20013;-75
2024/04/13 01:34:51;;;;;;;2.47;1.10;;;;;;;9.80;100.00;101858.09;5297411;26;20002;-75
2024/04/13 01:37:19;;;;;;;3.28;1.27;;;;;;;9.85;100.00;101866.34;5302119;26;20017;-75
2024/04/13 01:39:52;;;;;;;1.50;0.68;;;;;;;9.83;100.00;101863.31;5295682;27;20412;-75
2024/04/13 01:42:20;;;;;;;3.47;1.00;;;;;;;9.87;100.00;101863.78;5299246;27;20084;-75
2024/04/13 01:44:51;;;;;;;10.20;1.00;;;;;;;9.81;100.00;101859.56;5298034;27;20016;-75
2024/04/13 01:47:19;;;;;;;2.78;0.95;;;;;;;9.76;100.00;101852.81;5302315;27;20006;-74
2024/04/13 01:49:52;;;;;;;1.55;0.63;;;;;;;9.74;100.00;101851.81;5307060;26;20010;-74
2024/04/13 01:52:23;;;;;;;2.17;0.75;;;;;;;9.66;100.00;101846.84;5299825;27;20009;-75
2024/04/13 01:54:58;;;;;;;2.28;1.08;;;;;;;9.65;100.00;101842.59;5302455;26;20006;-75
2024/04/13 01:57:26;;;;;;;3.13;1.08;;;;;;;9.73;100.00;101833.72;5302863;27;20013;-75
2024/04/13 01:59:56;;;;;;;2.25;0.90;;;;;;;9.68;100.00;101832.50;5308295;27;20009;-76
2024/04/13 02:02:24;;;;;;;1.85;0.93;;;;;;;9.68;100.00;101836.00;5313530;26;20080;-75
2024/04/13 02:04:54;;;;;;;2.72;0.80;;;;;;;9.67;100.00;101839.31;5316818;26;20023;-75
2024/04/13 02:07:22;;;;;;;1.23;0.57;;;;;;;9.67;100.00;101842.84;5308620;27;20025;-75
2024/04/13 02:09:52;;;;;;;2.95;1.20;;;;;;;9.64;100.00;101841.09;5335432;26;20006;-73
2024/04/13 02:12:23;;;;;;;1.30;0.55;;;;;;;9.64;100.00;101840.34;5306436;27;20469;-76
2024/04/13 02:14:54;;;;;;;1.95;0.65;;;;;;;9.63;100.00;101845.13;5303153;27;20005;-72
2024/04/13 02:17:23;;;;;;;1.77;0.90;;;;;;;9.62;100.00;101845.66;5308205;26;20002;-75
2024/04/13 02:19:54;;;;;;;1.85;1.00;;;;;;;9.61;100.00;101836.59;5303644;27;20010;-74
2024/04/13 02:22:21;;;;;;;2.17;1.00;;;;;;;9.63;100.00;101827.75;5303182;26;20021;-75
2024/04/13 02:24:52;;;;;;;2.42;1.05;;;;;;;9.64;100.00;101830.03;5302632;27;20541;-74
2024/04/13 02:27:22;;;;;;;1.88;0.85;;;;;;;9.67;100.00;101847.63;5297797;27;20002;-75
2024/04/13 02:29:53;;;;;;;2.20;0.90;;;;;;;9.69;100.00;101842.28;5299179;27;20006;-75
2024/04/13 02:32:21;;;;;;;2.08;0.75;;;;;;;9.69;100.00;101845.06;5304974;26;20009;-75
2024/04/13 02:34:53;;;;;;;3.85;1.02;;;;;;;9.78;100.00;101847.50;5303703;26;20010;-75
2024/04/13 02:37:22;;;;;;;2.80;0.93;;;;;;;9.83;100.00;101843.91;5304643;27;20086;-75
2024/04/13 02:39:54;;;;;;;2.45;0.82;;;;;;;9.84;100.00;101845.44;5332427;26;20006;-75
2024/04/13 02:42:24;;;;;;;2.08;1.00;;;;;;;9.90;100.00;101845.38;5301597;27;20820;-75
2024/04/13 02:44:54;;;;;;;3.38;1.35;;;;;;;9.93;100.00;101835.25;5302244;26;20021;-75
2024/04/13 02:47:22;;;;;;;2.47;1.10;;;;;;;9.99;100.00;101838.69;5300849;26;20010;-75
2024/04/13 02:49:52;;;;;;;1.55;0.90;;;;;;;10.04;100.00;101837.88;5300251;27;20486;-75
2024/04/13 02:52:22;;;;;;;2.65;1.10;;;;;;;10.04;100.00;101835.13;5301516;27;20024;-74
2024/04/13 02:54:53;;;;;;;2.58;1.50;;;;;;;10.11;100.00;101831.75;5328870;26;20006;-75
2024/04/13 02:57:20;;;;;;;1.40;0.85;;;;;;;10.05;100.00;101828.31;5301297;27;20006;-76
2024/04/13 02:59:53;;;;;;;2.90;0.88;;;;;;;10.10;100.00;101819.16;5303270;26;20005;-74
2024/04/13 03:02:21;;;;;;;3.83;1.63;;;;;;;10.03;100.00;101825.31;5301383;26;20025;-75
2024/04/13 03:04:52;;;;;;;2.60;0.80;;;;;;;9.90;100.00;101823.94;5300813;27;20010;-75
2024/04/13 03:07:20;;;;;;;1.90;0.80;;;;;;;9.83;100.00;101827.28;5296657;27;20021;-76
2024/04/13 03:09:52;;;;;;;2.95;1.25;;;;;;;9.76;100.00;101814.00;5301906;26;20083;-76
2024/04/13 03:12:20;;;;;;;2.50;1.10;;;;;;;9.75;100.00;101815.28;5358427;26;20587;-76
2024/04/13 03:14:53;;;;;;;3.78;1.10;;;;;;;9.74;100.00;101818.56;5304397;26;20009;-78
2024/04/13 03:17:21;;;;;;;3.17;0.93;;;;;;;9.67;100.00;101812.34;5302616;27;20021;-75
2024/04/13 03:19:53;;;;;;;1.25;0.60;;;;;;;9.64;100.00;101813.41;5301564;27;20001;-76
2024/04/13 03:22:21;;;;;;;2.33;0.80;;;;;;;9.63;100.00;101817.41;5328817;26;20754;-76
2024/04/13 03:24:51;;;;;;;1.80;1.08;;;;;;;9.66;100.00;101813.59;5309316;26;20365;-76
2024/04/13 03:27:19;;;;;;;1.88;0.90;;;;;;;9.63;100.00;101819.44;5312082;26;20020;-76
2024/04/13 03:29:49;;;;;;;5.25;1.00;;;;;;;9.61;100.00;101819.22;5301725;27;20079;-76
2024/04/13 03:32:22;;;;;;;2.88;1.20;;;;;;;9.57;100.00;101810.44;5329819;26;20429;-76
2024/04/13 03:34:52;;;;;;;3.70;1.00;;;;;;;9.54;100.00;101808.69;5300404;26;20010;-76
2024/04/13 03:37:20;;;;;;;2.85;0.98;;;;;;;9.52;100.00;101809.22;5303957;26;20021;-76
2024/04/13 03:39:50;;;;;;;1.50;0.68;;;;;;;9.48;100.00;101811.53;5298050;26;20006;-76
2024/04/13 03:42:21;;;;;;;1.42;0.80;;;;;;;9.46;100.00;101806.50;5304640;26;20024;-75
2024/04/13 03:44:50;;;;;;;1.92;0.85;;;;;;;9.60;100.00;101818.47;5304041;26;20584;-76
2024/04/13 03:47:21;;;;;;;3.05;0.73;;;;;;;9.61;100.00;101824.75;5274333;26;20017;-74
2024/04/13 03:49:55;;;;;;;2.90;1.13;;;;;;;9.57;100.00;101815.97;5296596;26;20001;-76
2024/04/13 03:52:23;;;;;;;3.08;1.05;;;;;;;9.54;100.00;101812.22;5302166;27;20061;-76
2024/04/13 03:54:53;;;;;;;2.28;1.00;;;;;;;9.67;100.00;101811.59;5298796;26;20005;-74
2024/04/13 03:57:21;;;;;;;2.45;0.98;;;;;;;9.76;100.00;101819.53;5303923;26;20889;-75
2024/04/13 03:59:51;;;;;;;3.63;1.42;;;;;;;9.81;100.00;101807.66;5310260;26;20018;-76
2024/04/13 04:02:19;;;;;;;2.22;1.20;;;;;;;9.81;100.00;101815.97;5300680;26;20021;-75
2024/04/13 04:04:50;;;;;;;2.10;0.93;;;;;;;9.85;100.00;101799.06;5302305;26;20021;-76
2024/04/13 04:07:20;;;;;;;2.58;1.10;;;;;;;9.86;100.00;101817.16;5307031;26;20053;-75
2024/04/13 04:09:52;;;;;;;4.80;1.05;;;;;;;9.88;100.00;101823.69;5307155;26;20006;-75
2024/04/13 04:12:20;;;;;;;2.90;1.33;;;;;;;9.85;100.00;101815.69;5302341;27;20842;-76
2024/04/13 04:14:51;;;;;;;3.58;1.30;;;;;;;9.86;100.00;101806.09;5303624;26;20417;-74
2024/04/13 04:17:18;;;;;;;1.92;1.02;;;;;;;9.82;100.00;101800.84;5304318;27;20680;-77
2024/04/13 04:19:49;;;;;;;7.00;1.90;;;;;;;9.82;100.00;101808.41;5303279;26;20005;-75
2024/04/13 04:22:17;;;;;;;2.22;1.13;;;;;;;9.74;100.00;101807.47;5328959;26;20024;-75
2024/04/13 04:24:50;;;;;;;2.50;1.30;;;;;;;9.67;100.00;101804.03;5303448;26;20017;-75
2024/04/13 04:27:19;;;;;;;1.35;0.70;;;;;;;9.62;100.00;101798.56;5301110;27;20006;-75
2024/04/13 04:29:50;;;;;;;3.67;1.60;;;;;;;9.56;100.00;101806.16;5301903;27;20009;-75
2024/04/13 04:32:18;;;;;;;2.42;1.10;;;;;;;9.51;100.00;101796.63;5303201;27;20069;-75
2024/04/13 04:34:49;;;;;;;4.05;1.25;;;;;;;9.44;100.00;101795.19;5301044;26;20054;-75
2024/04/13 04:37:16;;;;;;;2.97;1.33;;;;;;;9.41;100.00;101792.72;5301716;27;20382;-75
2024/04/13 04:39:49;;;;;;;3.22;1.05;;;;;;;9.38;100.00;101797.25;5299925;27;20100;-75
2024/04/13 04:42:19;;;;;;;2.88;1.38;;;;;;;9.35;100.00;101792.78;5357591;26;20009;-75
2024/04/13 04:44:50;;;;;;;3.05;1.38;;;;;;;9.37;100.00;101795.78;5304430;27;20020;-75
2024/04/13 04:47:19;;;;;;;2.97;1.00;;;;;;;9.35;100.00;101792.78;5306114;27;20020;-75
2024/04/13 04:49:49;;;;;;;2.58;1.35;;;;;;;9.34;100.00;101805.09;5307939;27;20020;-76
2024/04/13 04:52:17;;;;;;;4.03;1.48;;;;;;;9.32;100.00;101799.34;5308417;27;20061;-75
2024/04/13 04:54:50;;;;;;;3.50;1.02;;;;;;;9.31;100.00;101803.38;5310303;27;20016;-75
2024/04/13 04:57:18;;;;;;;2.65;0.88;;;;;;;9.31;100.00;101803.38;5303609;27;20486;-75
2024/04/13 04:59:48;;;;;;;6.80;0.90;;;;;;;9.32;100.00;101806.88;5304037;27;20006;-76
2024/04/13 05:02:16;;;;;;;2.85;0.88;;;;;;;9.31;100.00;101811.69;5299787;27;20382;-75
2024/04/13 05:04:46;;;;;;;5.18;1.33;;;;;;;9.34;100.00;101810.63;5301220;26;20017;-75
2024/04/13 05:07:13;;;;;;;2.08;1.10;;;;;;;9.36;100.00;101808.09;5264641;27;20020;-77
2024/04/13 05:09:44;;;;;;;2.10;0.95;;;;;;;9.39;100.00;101815.38;5303829;27;20006;-77
2024/04/13 05:12:15;;;;;;;2.30;1.00;;;;;;;9.46;100.00;101819.59;5299241;27;20010;-75
2024/04/13 05:14:45;;;;;;;3.17;0.90;;;;;;;9.52;100.00;101828.63;5329039;26;20021;-75
2024/04/13 05:17:13;;;;;;;6.57;1.45;;;;;;;9.62;100.00;101824.25;5320066;26;20091;-75
2024/04/13 05:19:44;;;;;;;3.15;1.35;;;;;;;9.68;100.00;101822.16;5330159;26;20010;-78
2024/04/13 05:22:12;;;;;;;3.03;1.20;;;;;;;9.80;100.00;101819.28;5300875;27;20116;-75
2024/04/13 05:24:44;;;;;;;3.75;1.42;;;;;;;9.92;100.00;101828.97;5300927;27;20009;-78
2024/04/13 05:27:16;;;;;;;3.88;1.45;;;;;;;10.01;100.00;101827.84;5303192;27;20009;-77
2024/04/13 05:29:52;;;;;;;2.13;1.25;;;;;;;10.08;100.00;101833.53;5290133;27;20029;-74
2024/04/13 05:32:19;;;;;;;2.35;1.25;;;;;;;10.20;100.00;101831.41;5328403;26;20021;-74
2024/04/13 05:34:51;;;;;;;8.32;2.40;;;;;;;10.21;100.00;101840.47;5301093;27;20006;-75
2024/04/13 05:37:19;;;;;;;3.03;1.27;;;;;;;10.28;100.00;101840.66;5277067;26;20009;-76
2024/04/13 05:39:53;;;;;;;3.60;1.48;;;;;;;10.34;100.00;101835.03;5301055;26;20049;-75
2024/04/13 05:42:24;;;;;;;5.22;1.60;;;;;;;10.44;100.00;101849.31;5302227;27;20486;-75
2024/04/13 05:44:54;;;;;;;3.45;1.80;;;;;;;10.53;100.00;101846.13;5301993;27;20548;-75
2024/04/13 05:47:22;;;;;;;3.80;1.90;;;;;;;10.62;100.00;101856.88;5309740;26;20025;-74
2024/04/13 05:49:53;;;;;;;3.95;1.40;;;;;;;10.73;100.00;101856.72;5312646;27;20009;-76
2024/04/13 05:52:20;;;;;;;3.20;1.45;;;;;;;10.84;100.00;101853.03;5300628;27;20026;-75
2024/04/13 05:54:51;;;;;;;5.40;1.77;;;;;;;10.96;100.00;101856.38;5300909;26;20006;-74
2024/04/13 05:57:21;;;;;;;3.80;1.60;;;;;;;11.18;100.00;101849.72;5301920;26;20021;-75
2024/04/13 05:59:56;;;;;;;3.42;1.50;;;;;;;11.32;100.00;101856.06;5300718;27;20006;-75
2024/04/13 06:02:26;;;;;;;4.00;1.73;;;;;;;11.46;100.00;101856.84;5299442;27;20002;-75
2024/04/13 06:04:56;;;;;;;;;;;;;;;11.67;100.00;101859.75;5302140;27;20014;-75
2024/04/13 06:07:24;;;;;;;2.60;1.55;;;;;;;11.80;100.00;101868.13;5301930;26;19937;-75
2024/04/13 06:09:54;;;;;;;4.20;2.20;;;;;;;12.09;100.00;101857.22;5301929;27;20009;-74
2024/04/13 06:12:23;;;;;;;4.07;2.05;;;;;;;12.27;100.00;101859.88;5302999;26;20009;-75
2024/04/13 06:15:00;;;;;;;5.68;2.50;;;;;;;12.45;100.00;101852.66;5301470;26;20005;-74
2024/04/13 06:17:28;;;;;;;3.28;1.67;;;;;;;12.69;100.00;101859.25;5292449;27;20017;-76
2024/04/13 06:19:58;;;;;;;3.50;1.77;;;;;;;12.88;100.00;101859.81;5303142;26;20086;-75
2024/04/13 06:22:26;;;;;;;4.10;1.90;;;;;;;13.06;100.00;101863.72;5302604;27;20005;-75
2024/04/13 06:24:57;;;;;;;4.32;1.55;;;;;;;13.29;100.00;101860.41;5299473;27;20006;-74
2024/04/13 06:27:24;;;;;;;3.00;1.90;;;;;;;13.46;100.00;101860.00;5305468;27;20010;-75
2024/04/13 06:29:54;;;;;;;2.70;1.48;;;;;;;13.65;100.00;101866.06;5310536;27;20056;-75
2024/04/13 06:32:25;;;;;;;4.20;1.85;;;;;;;13.84;100.00;101859.50;5301458;27;20002;-75
2024/04/13 06:34:57;;;;;;;2.80;1.40;;;;;;;14.24;100.00;101867.50;5306273;27;20016;-75
2024/04/13 06:37:25;;;;;;;3.25;1.63;;;;;;;14.40;100.00;101858.66;5306549;26;20443;-74
2024/04/13 06:39:56;;;;;;;4.45;1.73;;;;;;;14.65;100.00;101860.25;5298032;26;20014;-75
2024/04/13 06:42:24;;;;;;;3.95;1.73;;;;;;;14.48;100.00;101855.13;5307259;27;20017;-75
2024/04/13 06:44:55;;;;;;;3.70;1.60;;;;;;;14.75;100.00;101859.16;5300719;27;20009;-75
2024/04/13 06:47:25;;;;;;;5.10;1.55;;;;;;;15.10;100.00;101864.44;5302341;26;20046;-75
2024/04/13 06:49:57;;;;;;;3.53;1.55;;;;;;;15.13;100.00;101854.91;5301868;27;20060;-75
2024/04/13 06:52:24;;;;;;;4.30;1.83;;;;;;;15.25;100.00;101853.25;5299991;27;20071;-76
2024/04/13 06:54:55;;;;;;;3.50;1.50;;;;;;;15.40;100.00;101850.44;5299219;27;20021;-77
2024/04/13 06:57:22;;;;;;;3.10;1.75;;;;;;;15.82;100.00;101858.44;5298982;27;20012;-77
2024/04/13 06:59:53;;;;;;;3.03;1.60;;;;;;;16.28;100.00;101852.69;5301391;27;20020;-76
2024/04/13 07:02:27;;;;;;;3.85;1.63;;;;;;;16.09;100.00;101855.19;5304385;26;20020;-77
2024/04/13 07:04:57;;;;;;;5.40;1.92;;;;;;;16.31;100.00;101853.63;5292236;27;20010;-74
2024/04/13 07:07:25;;;;;;;4.80;1.88;;;;;;;16.52;100.00;101858.94;5297539;27;20088;-77
2024/04/13 07:09:57;;;;;;;5.47;1.52;;;;;;;16.62;100.00;101856.28;5300790;27;20005;-77
2024/04/13 07:12:25;;;;;;;3.97;1.40;;;;;;;16.93;100.00;101854.03;5299994;27;22511;-77
2024/04/13 07:14:55;;;;;;;5.13;1.52;;;;;;;16.95;100.00;101851.41;5294510;27;20023;-76
2024/04/13 07:17:24;;;;;;;9.02;1.80;;;;;;;16.81;100.00;101859.34;5307436;26;20532;-76
2024/04/13 07:19:57;;;;;;;5.88;1.38;;;;;;;17.05;100.00;101859.94;5296457;27;20407;-76
2024/04/13 07:22:24;;;;;;;3.65;1.60;;;;;;;17.38;100.00;101852.94;5300090;27;20006;-77
2024/04/13 07:24:55;;;;;;;3.25;1.70;;;;;;;17.68;100.00;101842.75;5300339;27;20088;-76
2024/04/13 07:27:23;;;;;;;3.80;1.73;;;;;;;17.58;100.00;101837.06;5299121;27;20010;-76
2024/04/13 07:29:54;;;;;;;4.35;1.67;;;;;;;18.29;100.00;101838.50;5296192;26;20006;-76
2024/04/13 07:32:22;;;;;;;3.67;1.70;;;;;;;18.60;100.00;101826.88;5297305;27;20024;-76
2024/04/13 07:34:52;;;;;;;7.88;2.00;;;;;;;19.17;100.00;101830.50;5298609;27;20001;-76
2024/04/13 07:37:23;;;;;;;3.40;1.63;;;;;;;18.86;100.00;101828.91;5300586;27;20010;-76
2024/04/13 07:39:55;;;;;;;2.58;1.55;;;;;;;18.54;100.00;101832.00;5295838;27;20061;-76
2024/04/13 07:42:22;;;;;;;3.00;1.45;;;;;;;18.53;100.00;101827.72;5298825;27;20006;-76
2024/04/13 07:44:53;;;;;;;5.38;1.95;;;;;;;19.02;100.00;101823.81;5346070;26;20006;-76
2024/04/13 07:47:21;;;;;;;5.35;2.30;;;;;;;19.06;100.00;101823.38;5299379;27;20006;-77
2024/04/13 07:49:53;;;;;;;6.97;2.20;;;;;;;19.04;100.00;101832.41;5327154;26;20080;-76
2024/04/13 07:52:23;;;;;;;4.88;1.92;;;;;;;19.36;100.00;101829.81;5299122;27;20034;-76
2024/04/13 07:54:54;;;;;;;5.00;1.73;;;;;;;19.58;100.00;101828.66;5323243;26;20010;-74
2024/04/13 07:57:24;;;;;;;4.20;1.77;;;;;;;19.53;100.00;101826.88;5305195;27;20088;-77
2024/04/13 07:59:58;;;;;;;4.68;2.30;;;;;;;19.69;100.00;101830.19;5304710;27;20018;-78
2024/04/13 08:02:29;;;;;;;7.03;1.70;;;;;;;19.99;100.00;101820.38;5307274;26;20041;-79
2024/04/13 08:05:02;;;;;;;3.60;1.60;;;;;;;19.88;100.00;101818.91;5300562;26;20013;-77
2024/04/13 08:07:32;;;;;;;4.03;1.73;;;;;;;20.09;100.00;101818.28;5330480;26;20084;-78
2024/04/13 08:10:03;;;;;;;5.38;1.90;;;;;;;20.28;100.00;101820.34;5298741;26;20358;-78
2024/04/13 08:12:32;;;;;;;8.80;2.45;;;;;;;20.70;100.00;101818.31;5311162;26;20179;-78
2024/04/13 08:19:31;;;;;;;4.18;1.90;;;;;;;20.41;100.00;101805.75;5239119;27;20359;-78
2024/04/13 08:22:27;;;;;;;2.47;1.42;;;;;;;20.52;100.00;101812.09;5239720;27;20483;-77
2024/04/13 08:36:06;;;;;;;6.22;1.70;;;;;;;21.22;100.00;101797.88;5139659;27;20005;-77
2024/04/13 08:38:36;;;;;;;4.35;2.03;;;;;;;20.87;100.00;101800.41;5139570;27;20082;-77
2024/04/13 08:41:22;;;;;;;3.92;1.75;;;;;;;21.34;100.00;101801.50;5279893;27;20007;-78
2024/04/13 08:44:19;;;;;;;4.95;1.52;;;;;;;21.31;100.00;101788.56;5284690;27;20014;-76
2024/04/13 08:54:13;;;;;;;;;;;;;;;22.03;100.00;101796.03;5181753;26;19998;-77
2024/04/13 09:01:30;;;;;;;4.25;1.75;;;;;;;22.98;100.00;101786.31;5369305;26;20012;-77
2024/04/13 09:04:24;;;;;;;3.30;1.30;;;;;;;22.47;100.00;101769.81;5354949;26;20001;-78
2024/04/13 09:07:48;;;;;;;2.88;1.42;;;;;;;22.65;100.00;101772.28;5213468;27;20007;-77
2024/04/13 09:10:18;;;;;;;2.70;1.20;;;;;;;22.99;100.00;101778.56;5364655;26;20745;-78
2024/04/13 09:12:48;;;;;;;2.55;1.52;;;;;;;22.94;100.00;101774.72;5353282;26;20005;-77
2024/04/13 09:18:04;;;;;;;3.25;1.45;;;;;;;22.09;100.00;101766.06;5301208;27;20084;-78
2024/04/13 09:20:34;;;;;;;6.32;1.67;;;;;;;22.10;100.00;101761.88;5296405;27;20050;-78
2024/04/13 09:23:05;;;;;;;8.40;1.50;;;;;;;22.83;100.00;101767.00;5301389;26;20060;-78
2024/04/13 09:25:48;;;;;;;2.85;1.30;;;;;;;22.74;100.00;101757.28;5309570;26;20054;-78
2024/04/13 09:41:31;;;;;;;2.25;1.30;;;;;;;23.47;99.07;101749.53;5234701;27;20039;-76
2024/04/13 09:44:03;;;;;;;3.10;1.27;;;;;;;23.24;100.00;101750.31;5350077;26;20349;-76
2024/04/13 09:46:40;;;;;;;4.93;1.30;;;;;;;23.11;100.00;101748.88;5363920;26;20012;-75
2024/04/13 09:50:33;;;;;;;3.80;1.23;;;;;;;23.10;100.00;101749.53;5300761;26;20011;-76
2024/04/13 09:53:28;;;;;;;2.42;1.25;;;;;;;22.97;100.00;101736.69;5370644;26;20540;-76
2024/04/13 10:05:19;;;;;;;2.70;0.98;;;;;;;23.38;98.77;101733.41;5362640;26;19932;-76
2024/04/13 10:09:12;;;;;;;4.03;1.10;;;;;;;23.54;97.81;101727.91;5301915;26;20011;-76
2024/04/13 10:16:21;;;;;;;3.97;1.10;;;;;;;24.41;85.55;101717.78;5330139;26;20008;-77
2024/04/13 10:18:49;;;;;;;5.47;1.83;;;;;;;24.55;88.89;101717.06;5295568;26;20005;-74
2024/04/13 10:21:25;;;;;;;3.35;1.02;;;;;;;24.86;77.56;101722.94;5392008;26;20007;-77
2024/04/13 10:23:56;;;;;;;1.75;0.70;;;;;;;24.95;76.04;101718.41;5397647;26;20093;-77
2024/04/13 10:26:30;;;;;;;2.65;0.70;;;;;;;24.95;76.62;101714.81;5344807;26;20015;-77
2024/04/13 10:28:58;;;;;;;3.97;0.93;;;;;;;24.89;80.49;101710.31;5404779;26;20429;-75
2024/04/13 10:31:33;;;;;;;2.55;1.17;;;;;;;24.61;77.17;101711.72;5405793;26;20015;-75
2024/04/13 10:34:02;;;;;;;1.75;0.70;;;;;;;24.30;81.51;101712.94;5406247;26;20004;-76
2024/04/13 10:36:37;;;;;;;1.58;0.80;;;;;;;23.68;88.71;101699.66;5405083;26;20003;-77
2024/04/13 10:39:23;;;;;;;2.15;0.80;;;;;;;24.31;84.66;101694.56;5395925;26;20026;-77
2024/04/13 10:42:00;;;;;;;3.00;1.20;;;;;;;24.83;82.44;101695.09;5397834;26;20051;-76
2024/04/13 10:44:35;;;;;;;3.10;0.88;;;;;;;25.52;74.40;101692.06;5372229;26;20008;-77
2024/04/13 10:47:07;;;;;;;3.03;0.90;;;;;;;25.08;73.12;101686.41;5402561;26;20413;-77
2024/04/13 10:49:37;;;;;;;3.10;1.30;;;;;;;24.98;74.08;101682.34;5406206;26;20057;-77
2024/04/13 10:52:29;;;;;;;2.55;1.10;;;;;;;24.98;77.19;101683.06;5372218;26;19999;-77
2024/04/13 10:55:21;;;;;;;4.70;1.75;;;;;;;24.91;86.70;101677.72;5368809;26;20027;-76
2024/04/13 11:01:53;;;;;;;11.38;2.97;;;;;;;24.74;79.73;101671.25;5404346;26;20008;-77
2024/04/13 11:04:49;;;;;;;1.60;0.63;;;;;;;25.35;71.64;101667.13;5392959;26;19995;-77
2024/04/13 11:07:25;;;;;;;3.50;0.82;;;;;;;25.15;70.43;101659.06;5406550;26;20004;-78
2024/04/13 11:09:53;;;;;;;2.10;0.80;;;;;;;24.97;75.68;101661.72;5408423;26;20085;-77
2024/04/13 11:12:23;;;;;;;2.63;0.70;;;;;;;25.53;70.63;101660.16;5405065;26;20011;-78
2024/04/13 11:14:51;;;;;;;1.85;0.60;;;;;;;25.08;78.78;101654.44;5404797;26;20077;-75
2024/04/13 11:17:23;;;;;;;2.58;0.77;;;;;;;25.87;68.11;101651.78;5376787;26;20535;-77
2024/04/13 11:19:52;;;;;;;2.05;0.63;;;;;;;25.52;67.72;101635.25;5406402;26;20015;-76
2024/04/13 11:26:50;;;;;;;3.20;1.20;;;;;;;25.35;70.62;101635.88;5292866;27;20009;-77
2024/04/13 11:37:17;;;;;;;3.90;0.90;;;;;;;25.21;74.16;101619.59;5179840;27;20048;-76
2024/04/13 12:14:13;;;;;;;1.48;0.60;;;;;;;26.63;64.78;101558.31;4487565;25;25719120;-75
2024/04/13 12:51:52;;;;;;;0.77;0.38;;;;;;;26.02;62.42;101496.78;5019256;28;20026;-76
2024/04/13 13:20:35;;;;;;;5.32;1.20;;;;;;;26.99;60.73;101436.59;4912725;28;20058;-75
2024/04/13 13:23:04;;;;;;;2.75;0.70;;;;;;;26.64;61.69;101431.00;4986768;28;20008;-75
2024/04/13 13:25:35;;;;;;;1.70;0.70;;;;;;;25.94;64.99;101428.22;5073100;27;20006;-76
2024/04/13 13:28:08;;;;;;;1.75;0.70;;;;;;;26.40;61.36;101425.78;5102494;27;20443;-77
2024/04/13 13:30:42;;;;;;;3.80;1.00;;;;;;;25.37;66.04;101420.06;5203005;27;20019;-76
2024/04/13 13:33:10;;;;;;;1.05;0.52;;;;;;;25.65;64.36;101409.22;5195334;27;20010;-75
2024/04/13 13:35:43;;;;;;;1.35;0.57;;;;;;;25.51;66.01;101412.91;5213406;27;20030;-75
2024/04/13 13:38:10;;;;;;;1.52;0.73;;;;;;;26.31;62.61;101401.22;5221001;27;20019;-76
2024/04/13 13:40:41;;;;;;;3.67;0.70;;;;;;;26.98;58.92;101408.78;5296234;26;20001;-75
2024/04/13 13:43:11;;;;;;;1.52;0.55;;;;;;;26.88;58.09;101400.59;5335546;26;20005;-77
2024/04/13 13:45:48;;;;;;;1.33;0.50;;;;;;;27.06;55.69;101396.97;5308042;26;20008;-76
2024/04/13 13:48:16;;;;;;;2.55;0.60;;;;;;;26.52;56.54;101392.13;5339012;26;20441;-76
2024/04/13 13:50:52;;;;;;;2.30;0.60;;;;;;;26.69;57.90;101387.81;5330056;26;20020;-76
2024/04/13 13:53:20;;;;;;;3.58;1.50;;;;;;;26.03;60.39;101378.81;5309357;26;20023;-76
2024/04/13 13:55:50;;;;;;;1.05;0.55;;;;;;;25.81;66.75;101375.03;5327897;26;20080;-76
2024/04/13 13:58:20;;;;;;;1.63;0.50;;;;;;;26.37;57.77;101364.50;5320735;26;20420;-76
2024/04/13 14:00:50;;;;;;;2.28;0.75;;;;;;;26.24;59.36;101360.47;5289464;26;20006;-76
2024/04/13 14:03:18;;;;;;;3.75;0.70;;;;;;;26.43;58.54;101359.03;5329973;26;20021;-77
2024/04/13 14:05:51;;;;;;;1.80;0.47;;;;;;;26.50;57.15;101360.00;5326988;26;20017;-77
2024/04/13 14:08:22;;;;;;;3.65;1.05;;;;;;;26.84;53.80;101352.06;5323381;26;20042;-76
2024/04/13 14:10:54;;;;;;;2.38;0.70;;;;;;;26.92;58.52;101355.19;5334048;26;20023;-76
2024/04/13 14:13:24;;;;;;;2.38;0.68;;;;;;;26.85;57.12;101344.97;5315599;26;20001;-76
2024/04/13 14:15:55;;;;;;;2.60;0.85;;;;;;;26.70;55.41;101340.88;5337886;26;20019;-76
2024/04/13 14:18:23;;;;;;;1.65;0.57;;;;;;;26.24;59.44;101334.88;5291901;26;20476;-76
2024/04/13 14:20:57;;;;;;;2.08;0.52;;;;;;;26.45;55.59;101336.34;5289772;26;20006;-75
2024/04/13 14:24:15;;;;;;;2.05;0.80;;;;;;;26.50;57.82;101332.28;5300450;26;20009;-76
2024/04/13 14:27:43;;;;;;;1.20;0.68;;;;;;;26.79;57.18;101317.00;5244720;26;20081;-76
2024/04/13 14:30:25;;;;;;;1.10;0.50;;;;;;;27.43;55.83;101311.41;5326732;26;20086;-76
2024/04/13 14:32:56;;;;;;;2.67;0.80;;;;;;;27.32;54.62;101314.56;5304879;26;20042;-76
2024/04/13 14:35:24;;;;;;;5.63;0.57;;;;;;;27.50;52.59;101303.81;5320447;26;20017;-76